createdAt,value
2022-11-29T00:01:38.339Z,98712.06
2022-11-29T00:04:06.564Z,98711.22
2022-11-29T00:06:36.457Z,98713.03
2022-11-29T00:09:07.315Z,98710.97
2022-11-29T00:11:54.092Z,98709.81
2022-11-29T00:14:23.054Z,98709.28
2022-11-29T00:16:51.876Z,98707.22
2022-11-29T00:19:20.394Z,98705.66
2022-11-29T00:21:49.678Z,98697.06
2022-11-29T00:24:17.718Z,98704.50
2022-11-29T00:26:45.820Z,98702.94
2022-11-29T00:29:14.337Z,98699.03
2022-11-29T00:31:42.712Z,98701.78
2022-11-29T00:34:12.677Z,98693.25
2022-11-29T00:36:40.778Z,98697.09
2022-11-29T00:39:12.057Z,98698.69
2022-11-29T00:41:40.232Z,98699.53
2022-11-29T00:44:08.315Z,98696.81
2022-11-29T00:46:36.222Z,98703.00
2022-11-29T00:49:04.704Z,98691.38
2022-11-29T00:51:32.745Z,98690.22
2022-11-29T00:54:00.640Z,98683.56
2022-11-29T00:56:29.917Z,98692.19
2022-11-29T00:58:57.934Z,98688.94
2022-11-29T01:01:25.919Z,98682.84
2022-11-29T01:03:53.818Z,98688.03
2022-11-29T01:06:21.723Z,98679.16
2022-11-29T01:08:50.769Z,98684.09
2022-11-29T01:11:25.636Z,98689.56
2022-11-29T01:13:57.874Z,98681.13
2022-11-29T01:16:26.417Z,98686.84
2022-11-29T01:18:54.437Z,98683.00
2022-11-29T01:21:24.556Z,98688.53
2022-11-29T01:23:54.407Z,98682.28
2022-11-29T01:29:30.411Z,98685.09
2022-11-29T01:31:58.409Z,98683.56
2022-11-29T01:34:26.363Z,98671.53
2022-11-29T01:36:54.279Z,98670.09
2022-11-29T01:39:22.317Z,98671.28
2022-11-29T01:41:50.388Z,98665.69
2022-11-29T01:44:55.848Z,98663.84
2022-11-29T01:47:25.130Z,98654.97
2022-11-29T01:49:53.176Z,98658.09
2022-11-29T01:52:23.690Z,98656.44
2022-11-29T01:54:56.660Z,98658.09
2022-11-29T01:57:25.215Z,98661.53
2022-11-29T01:59:59.257Z,98654.56
2022-11-29T02:02:36.631Z,98647.28
2022-11-29T02:05:06.139Z,98655.81
2022-11-29T02:07:34.116Z,98658.94
2022-11-29T02:10:03.171Z,98665.84
2022-11-29T02:12:38.112Z,98650.38
2022-11-29T02:15:24.262Z,98665.31
2022-11-29T02:18:04.501Z,98671.03
2022-11-29T02:21:01.025Z,98675.78
2022-11-29T02:24:19.628Z,98667.56
2022-11-29T02:27:17.122Z,98670.47
2022-11-29T02:30:21.906Z,98680.47
2022-11-29T02:33:10.176Z,98673.56
2022-11-29T02:35:52.386Z,98674.53
2022-11-29T02:38:31.706Z,98679.31
2022-11-29T02:41:20.360Z,98680.72
2022-11-29T02:44:08.851Z,98680.09
2022-11-29T02:47:01.016Z,98672.47
2022-11-29T02:49:43.531Z,98679.31
2022-11-29T02:52:18.253Z,98673.91
2022-11-29T02:54:52.227Z,98671.59
2022-11-29T02:57:26.270Z,98669.44
2022-11-29T03:00:01.306Z,98673.66
2022-11-29T03:02:36.240Z,98679.22
2022-11-29T03:05:15.152Z,98686.66
2022-11-29T03:07:54.870Z,98687.38
2022-11-29T03:10:31.699Z,98683.13
2022-11-29T03:13:01.076Z,98690.19
2022-11-29T03:15:32.328Z,98691.19
2022-11-29T03:18:16.789Z,98700.97
2022-11-29T03:21:04.775Z,98701.41
2022-11-29T03:23:38.115Z,98686.50
2022-11-29T03:26:09.780Z,98698.19
2022-11-29T03:28:42.499Z,98701.16
2022-11-29T03:31:17.041Z,98704.75
2022-11-29T03:33:54.876Z,98700.22
2022-11-29T03:36:34.759Z,98701.47
2022-11-29T03:39:06.836Z,98703.81
2022-11-29T03:41:42.705Z,98691.91
2022-11-29T03:44:16.072Z,98706.06
2022-11-29T03:46:49.203Z,98700.72
2022-11-29T03:49:22.722Z,98705.19
2022-11-29T03:52:02.268Z,98707.81
2022-11-29T03:54:39.148Z,98708.56
2022-11-29T03:57:08.059Z,98727.44
2022-11-29T03:59:52.442Z,98724.38
2022-11-29T04:02:57.735Z,98726.41
2022-11-29T04:05:49.013Z,98733.94
2022-11-29T04:08:54.122Z,98735.25
2022-11-29T04:11:55.863Z,98733.94
2022-11-29T04:14:44.201Z,98744.25
2022-11-29T04:17:55.993Z,98741.44
2022-11-29T04:20:57.845Z,98737.44
2022-11-29T04:23:49.177Z,98740.63
2022-11-29T04:26:45.891Z,98739.09
2022-11-29T04:29:25.216Z,98741.38
2022-11-29T04:32:11.515Z,98754.88
2022-11-29T04:35:30.561Z,98751.44
2022-11-29T04:38:30.939Z,98753.69
2022-11-29T04:41:25.328Z,98755.66
2022-11-29T04:44:04.931Z,98756.59
2022-11-29T04:46:52.499Z,98776.28
2022-11-29T04:49:55.349Z,98774.22
2022-11-29T04:52:37.984Z,98775.59
2022-11-29T04:55:26.363Z,98781.31
2022-11-29T04:58:05.559Z,98778.41
2022-11-29T05:00:40.836Z,98780.44
2022-11-29T05:03:15.586Z,98777.28
2022-11-29T05:05:52.001Z,98781.13
2022-11-29T05:08:30.515Z,98794.06
2022-11-29T05:11:06.965Z,98781.50
2022-11-29T05:13:49.952Z,98793.28
2022-11-29T05:16:44.056Z,98786.59
2022-11-29T05:19:35.618Z,98789.66
2022-11-29T05:22:14.336Z,98790.06
2022-11-29T05:24:53.109Z,98801.03
2022-11-29T05:27:28.250Z,98799.78
2022-11-29T05:30:03.699Z,98804.47
2022-11-29T05:32:39.366Z,98802.19
2022-11-29T05:35:41.375Z,98801.44
2022-11-29T05:38:22.188Z,98811.78
2022-11-29T05:41:03.238Z,98809.31
2022-11-29T05:43:48.365Z,98810.31
2022-11-29T05:46:23.804Z,98808.22
2022-11-29T05:49:01.902Z,98814.97
2022-11-29T05:51:41.197Z,98820.22
2022-11-29T05:54:19.425Z,98819.03
2022-11-29T05:56:54.993Z,98830.69
2022-11-29T05:59:28.316Z,98827.25
2022-11-29T06:02:06.465Z,98835.69
2022-11-29T06:04:52.661Z,98835.13
2022-11-29T06:07:27.223Z,98839.06
2022-11-29T06:10:02.495Z,98842.88
2022-11-29T06:12:35.015Z,98841.28
2022-11-29T06:15:30.161Z,98852.44
2022-11-29T06:18:19.257Z,98849.09
2022-11-29T06:21:03.568Z,98857.44
2022-11-29T06:23:49.481Z,98853.94
2022-11-29T06:26:37.660Z,98850.88
2022-11-29T06:29:22.164Z,98854.91
2022-11-29T06:31:56.806Z,98853.47
2022-11-29T06:34:32.566Z,98848.72
2022-11-29T06:37:06.440Z,98857.47
2022-11-29T06:39:34.877Z,98857.19
2022-11-29T06:42:02.864Z,98857.41
2022-11-29T06:44:31.267Z,98860.41
2022-11-29T06:47:06.536Z,98861.44
2022-11-29T06:49:44.694Z,98861.91
2022-11-29T06:52:22.359Z,98869.34
2022-11-29T06:55:04.436Z,98870.66
2022-11-29T06:57:43.892Z,98870.53
2022-11-29T07:00:17.507Z,98867.94
2022-11-29T07:03:15.858Z,98861.59
2022-11-29T07:05:46.586Z,98870.66
2022-11-29T07:08:18.782Z,98878.47
2022-11-29T07:10:49.806Z,98877.09
2022-11-29T07:13:19.425Z,98879.59
2022-11-29T07:15:56.809Z,98881.97
2022-11-29T07:18:32.425Z,98884.50
2022-11-29T07:21:09.727Z,98885.19
2022-11-29T07:23:45.307Z,98885.63
2022-11-29T07:26:22.632Z,98898.69
2022-11-29T07:29:05.547Z,98898.75
2022-11-29T07:31:46.893Z,98889.47
2022-11-29T07:34:22.632Z,98897.03
2022-11-29T07:37:00.333Z,98897.69
2022-11-29T07:39:41.755Z,98900.50
2022-11-29T07:42:17.663Z,98900.28
2022-11-29T07:44:57.028Z,98900.63
2022-11-29T07:47:25.138Z,98900.50
2022-11-29T07:49:53.084Z,98898.47
2022-11-29T07:52:22.511Z,98900.81
2022-11-29T07:54:50.478Z,98906.84
2022-11-29T07:57:18.495Z,98910.41
2022-11-29T07:59:46.805Z,98909.91
2022-11-29T08:02:14.940Z,98913.84
2022-11-29T08:04:44.350Z,98915.34
2022-11-29T08:07:12.834Z,98919.22
2022-11-29T08:09:42.256Z,98918.31
2022-11-29T08:12:10.241Z,98917.53
2022-11-29T08:14:38.137Z,98915.56
2022-11-29T08:17:09.194Z,98912.75
2022-11-29T08:19:38.270Z,98918.56
2022-11-29T08:22:06.194Z,98908.88
2022-11-29T08:24:34.078Z,98922.16
2022-11-29T08:27:03.328Z,98919.06
2022-11-29T08:29:31.338Z,98915.50
2022-11-29T08:31:59.400Z,98927.31
2022-11-29T08:34:27.681Z,98933.47
2022-11-29T08:36:56.709Z,98930.31
2022-11-29T08:39:25.064Z,98930.38
2022-11-29T08:41:53.129Z,98936.09
2022-11-29T08:44:22.427Z,98928.06
2022-11-29T08:47:08.036Z,98929.09
2022-11-29T08:49:36.000Z,98933.38
2022-11-29T08:52:21.246Z,98937.09
2022-11-29T08:54:49.178Z,98933.13
2022-11-29T08:57:39.112Z,98934.06
2022-11-29T09:00:08.182Z,98938.84
2022-11-29T09:02:37.475Z,98944.00
2022-11-29T09:05:06.138Z,98944.75
2022-11-29T09:07:34.344Z,98945.94
2022-11-29T09:10:05.049Z,98942.47
2022-11-29T09:12:33.552Z,98941.41
2022-11-29T09:15:01.543Z,98937.41
2022-11-29T09:17:31.032Z,98938.00
2022-11-29T09:19:58.954Z,98940.06
2022-11-29T09:22:26.881Z,98935.53
2022-11-29T09:24:54.875Z,98939.16
2022-11-29T09:27:22.842Z,98935.50
2022-11-29T09:29:50.733Z,98928.31
2022-11-29T09:32:18.664Z,98941.84
2022-11-29T09:34:48.333Z,98942.53
2022-11-29T09:37:16.372Z,98941.47
2022-11-29T09:39:44.403Z,98941.19
2022-11-29T09:42:28.470Z,98933.03
2022-11-29T09:45:06.938Z,98935.34
2022-11-29T09:48:07.916Z,98929.59
2022-11-29T09:50:43.095Z,98932.63
2022-11-29T09:53:29.545Z,98938.06
2022-11-29T09:56:13.354Z,98932.50
2022-11-29T09:58:48.224Z,98928.97
2022-11-29T10:01:21.738Z,98931.69
2022-11-29T10:03:53.919Z,98930.84
2022-11-29T10:06:26.777Z,98927.28
2022-11-29T10:09:00.591Z,98936.47
2022-11-29T10:11:34.216Z,98936.94
2022-11-29T10:14:11.062Z,98931.13
2022-11-29T10:16:45.640Z,98932.41
2022-11-29T10:19:22.292Z,98935.31
2022-11-29T10:22:03.571Z,98933.97
2022-11-29T10:24:33.985Z,98939.63
2022-11-29T10:27:02.055Z,98933.66
2022-11-29T10:29:30.047Z,98934.91
2022-11-29T10:31:59.422Z,98927.31
2022-11-29T10:34:30.582Z,98933.78
2022-11-29T10:37:02.691Z,98927.84
2022-11-29T10:39:39.591Z,98927.78
2022-11-29T10:42:36.181Z,98923.78
2022-11-29T10:45:06.216Z,98930.63
2022-11-29T10:47:34.330Z,98928.13
2022-11-29T10:50:02.223Z,98928.97
2022-11-29T10:52:31.508Z,98921.81
2022-11-29T10:55:01.112Z,98919.47
2022-11-29T10:57:29.042Z,98919.94
2022-11-29T11:00:02.375Z,98927.13
2022-11-29T11:02:31.440Z,98920.19
2022-11-29T11:05:00.802Z,98916.38
2022-11-29T11:07:33.319Z,98911.00
2022-11-29T11:10:02.689Z,98899.25
2022-11-29T11:12:32.584Z,98898.34
2022-11-29T11:15:27.660Z,98904.53
2022-11-29T11:17:58.192Z,98901.19
2022-11-29T11:20:28.526Z,98897.91
2022-11-29T11:23:00.928Z,98907.44
2022-11-29T11:25:31.616Z,98914.50
2022-11-29T11:28:13.597Z,98916.06
2022-11-29T11:30:41.584Z,98910.00
2022-11-29T11:33:18.377Z,98921.09
2022-11-29T11:36:01.121Z,98911.00
2022-11-29T11:38:30.816Z,98908.22
2022-11-29T11:41:05.828Z,98909.63
2022-11-29T11:43:35.484Z,98914.31
2022-11-29T11:46:03.563Z,98914.78
2022-11-29T11:48:32.490Z,98916.69
2022-11-29T11:51:03.216Z,98917.97
2022-11-29T11:53:36.716Z,98918.16
2022-11-29T11:56:07.557Z,98923.69
2022-11-29T11:58:38.823Z,98918.63
2022-11-29T12:01:16.769Z,98917.34
2022-11-29T12:04:01.705Z,98927.84
2022-11-29T12:06:42.109Z,98930.28
2022-11-29T12:09:24.295Z,98916.34
2022-11-29T12:12:01.350Z,98921.13
2022-11-29T12:14:37.777Z,98920.22
2022-11-29T12:17:20.207Z,98920.22
2022-11-29T12:20:00.327Z,98918.19
2022-11-29T12:22:33.919Z,98928.22
2022-11-29T12:25:08.484Z,98924.50
2022-11-29T12:27:36.397Z,98924.47
2022-11-29T12:30:12.690Z,98929.59
2022-11-29T12:32:53.986Z,98926.00
2022-11-29T12:35:39.461Z,98929.69
2022-11-29T12:38:18.900Z,98928.31
2022-11-29T12:40:57.187Z,98934.63
2022-11-29T12:43:35.207Z,98927.94
2022-11-29T12:46:12.819Z,98926.50
2022-11-29T12:48:50.895Z,98929.44
2022-11-29T12:51:28.855Z,98927.72
2022-11-29T12:54:16.407Z,98935.69
2022-11-29T12:56:55.559Z,98931.19
2022-11-29T12:59:38.433Z,98925.75
2022-11-29T13:02:24.520Z,98933.31
2022-11-29T13:05:02.764Z,98940.91
2022-11-29T13:07:40.981Z,98940.06
2022-11-29T13:10:30.926Z,98945.38
2022-11-29T13:13:09.306Z,98935.50
2022-11-29T13:15:44.371Z,98940.09
2022-11-29T13:18:20.804Z,98944.97
2022-11-29T13:21:02.384Z,98951.69
2022-11-29T13:23:46.028Z,98946.59
2022-11-29T13:26:28.221Z,98949.16
2022-11-29T13:28:59.245Z,98955.50
2022-11-29T13:31:27.592Z,98952.88
2022-11-29T13:34:02.204Z,98954.81
2022-11-29T13:36:39.070Z,98960.19
2022-11-29T13:39:17.162Z,98965.59
2022-11-29T13:41:51.954Z,98965.00
2022-11-29T13:44:32.107Z,98968.22
2022-11-29T13:47:06.753Z,98959.22
2022-11-29T13:49:54.524Z,98973.69
2022-11-29T13:52:41.250Z,98971.94
2022-11-29T13:55:29.237Z,98979.84
2022-11-29T13:58:20.173Z,98974.03
2022-11-29T14:00:53.198Z,98972.91
2022-11-29T14:03:30.217Z,98965.25
2022-11-29T14:06:11.421Z,98970.66
2022-11-29T14:11:39.024Z,98983.72
2022-11-29T14:14:11.110Z,98978.84
2022-11-29T14:16:47.553Z,98974.41
2022-11-29T14:19:33.138Z,98984.59
2022-11-29T14:22:28.810Z,98986.44
2022-11-29T14:25:21.688Z,98989.25
2022-11-29T14:28:01.267Z,98983.63
2022-11-29T14:30:57.166Z,98992.34
2022-11-29T14:33:58.602Z,98991.66
2022-11-29T14:36:43.202Z,98992.59
2022-11-29T14:39:31.288Z,98990.75
2022-11-29T14:42:14.681Z,98980.47
2022-11-29T14:44:49.601Z,98990.25
2022-11-29T14:47:27.096Z,98995.81
2022-11-29T14:49:58.561Z,98991.84
2022-11-29T14:52:30.583Z,98987.88
2022-11-29T14:55:02.051Z,98989.88
2022-11-29T14:58:14.635Z,98995.53
2022-11-29T15:00:54.164Z,98993.63
2022-11-29T15:03:29.500Z,99002.03
2022-11-29T15:06:02.134Z,99007.91
2022-11-29T15:08:34.919Z,98996.59
2022-11-29T15:11:08.093Z,99007.31
2022-11-29T15:13:38.017Z,98999.09
2022-11-29T15:16:29.998Z,99008.09
2022-11-29T15:19:40.785Z,99005.78
2022-11-29T15:22:16.764Z,99005.66
2022-11-29T15:24:52.666Z,99010.00
2022-11-29T15:27:21.369Z,99010.28
2022-11-29T15:29:49.429Z,99002.00
2022-11-29T15:32:24.048Z,99009.06
2022-11-29T15:34:53.850Z,99009.94
2022-11-29T15:37:42.786Z,99012.38
2022-11-29T15:40:14.429Z,99009.28
2022-11-29T15:42:44.763Z,99009.75
2022-11-29T15:45:34.033Z,99008.47
2022-11-29T15:48:19.916Z,99002.84
2022-11-29T15:50:59.404Z,99000.47
2022-11-29T15:53:33.313Z,99010.47
2022-11-29T15:56:04.505Z,99007.06
2022-11-29T15:58:35.039Z,99005.44
2022-11-29T16:01:04.003Z,99001.09
2022-11-29T16:03:35.831Z,99010.97
2022-11-29T16:06:08.650Z,99010.47
2022-11-29T16:08:42.630Z,99016.16
2022-11-29T16:11:17.060Z,99016.38
2022-11-29T16:14:02.669Z,99019.19
2022-11-29T16:16:35.572Z,99026.59
2022-11-29T16:19:17.380Z,99028.66
2022-11-29T16:21:46.020Z,99027.78
2022-11-29T16:24:21.900Z,99037.31
2022-11-29T16:26:51.838Z,99031.38
2022-11-29T16:29:24.680Z,99029.03
2022-11-29T16:31:53.493Z,99026.38
2022-11-29T16:34:27.091Z,99025.72
2022-11-29T16:37:06.612Z,99017.84
2022-11-29T16:39:38.605Z,99027.41
2022-11-29T16:42:19.418Z,99033.19
2022-11-29T16:45:23.850Z,99040.50
2022-11-29T16:47:58.136Z,99041.59
2022-11-29T16:50:27.905Z,99038.56
2022-11-29T16:52:57.056Z,99043.31
2022-11-29T16:55:26.626Z,99055.97
2022-11-29T16:57:54.619Z,99049.38
2022-11-29T17:00:29.687Z,99063.31
2022-11-29T17:02:57.790Z,99052.94
2022-11-29T17:05:26.137Z,99056.19
2022-11-29T17:07:54.283Z,99059.66
2022-11-29T17:10:25.626Z,99054.22
2022-11-29T17:12:55.009Z,99047.53
2022-11-29T17:15:22.893Z,99058.91
2022-11-29T17:17:50.812Z,99059.78
2022-11-29T17:20:18.784Z,99059.38
2022-11-29T17:22:46.771Z,99056.25
2022-11-29T17:25:14.713Z,99052.00
2022-11-29T17:27:42.596Z,99062.53
2022-11-29T17:30:13.090Z,99062.47
2022-11-29T17:32:41.080Z,99054.72
2022-11-29T17:35:09.518Z,99061.53
2022-11-29T17:37:37.506Z,99061.47
2022-11-29T17:40:06.137Z,99070.88
2022-11-29T17:42:34.082Z,99075.94
2022-11-29T17:45:02.065Z,99072.13
2022-11-29T17:47:31.451Z,99072.03
2022-11-29T17:49:59.408Z,99081.69
2022-11-29T17:52:27.320Z,99073.25
2022-11-29T17:54:55.243Z,99072.25
2022-11-29T17:57:23.322Z,99065.56
2022-11-29T17:59:51.316Z,99062.22
2022-11-29T18:02:19.278Z,99069.59
2022-11-29T18:04:48.656Z,99060.72
2022-11-29T18:07:17.402Z,99069.16
2022-11-29T18:09:46.954Z,99069.88
2022-11-29T18:12:15.067Z,99073.78
2022-11-29T18:14:43.074Z,99063.38
2022-11-29T18:17:11.087Z,99067.69
2022-11-29T18:19:39.063Z,99070.00
2022-11-29T18:22:08.463Z,99072.72
2022-11-29T18:24:36.460Z,99070.41
2022-11-29T18:27:04.468Z,99074.47
2022-11-29T18:29:45.672Z,99077.44
2022-11-29T18:32:13.654Z,99077.72
2022-11-29T18:34:41.545Z,99073.69
2022-11-29T18:37:16.187Z,99079.78
2022-11-29T18:39:48.649Z,99077.88
2022-11-29T18:42:16.582Z,99073.84
2022-11-29T18:44:44.904Z,99080.09
2022-11-29T18:47:13.083Z,99072.34
2022-11-29T18:49:41.204Z,99066.19
2022-11-29T18:52:11.465Z,99070.34
2022-11-29T18:54:39.819Z,99069.09
2022-11-29T18:57:07.802Z,99063.31
2022-11-29T18:59:35.759Z,99068.94
2022-11-29T19:02:03.738Z,99063.25
2022-11-29T19:04:31.682Z,99074.66
2022-11-29T19:06:59.701Z,99068.81
2022-11-29T19:09:28.981Z,99073.88
2022-11-29T19:11:56.955Z,99070.19
2022-11-29T19:14:24.855Z,99074.31
2022-11-29T19:16:52.862Z,99074.38
2022-11-29T19:19:20.764Z,99070.28
2022-11-29T19:21:49.191Z,99079.88
2022-11-29T19:24:18.940Z,99089.59
2022-11-29T19:26:50.698Z,99085.03
2022-11-29T19:29:18.810Z,99093.16
2022-11-29T19:31:46.776Z,99070.69
2022-11-29T19:34:14.967Z,99082.06
2022-11-29T19:36:44.517Z,99085.84
2022-11-29T19:39:14.581Z,99090.28
2022-11-29T19:41:44.229Z,99094.22
2022-11-29T19:44:13.920Z,99098.47
2022-11-29T19:46:43.311Z,99095.94
2022-11-29T19:49:11.534Z,99094.63
2022-11-29T19:51:39.717Z,99094.16
2022-11-29T19:54:09.570Z,99090.22
2022-11-29T19:56:38.966Z,99100.53
2022-11-29T19:59:07.836Z,99102.84
2022-11-29T20:01:41.426Z,99097.88
2022-11-29T20:04:11.684Z,99087.59
2022-11-29T20:06:39.927Z,99094.38
2022-11-29T20:09:08.013Z,99101.78
2022-11-29T20:11:36.033Z,99099.34
2022-11-29T20:14:05.972Z,99098.19
2022-11-29T20:16:34.803Z,99105.56
2022-11-29T20:19:04.084Z,99108.47
2022-11-29T20:21:33.819Z,99099.47
2022-11-29T20:24:03.883Z,99104.56
2022-11-29T20:26:33.848Z,99104.09
2022-11-29T20:29:02.910Z,99105.41
2022-11-29T20:31:33.441Z,99108.78
2022-11-29T20:34:01.726Z,99106.94
2022-11-29T20:36:41.496Z,99106.06
2022-11-29T20:39:21.137Z,99112.41
2022-11-29T20:42:00.487Z,99112.66
2022-11-29T20:44:37.412Z,99104.00
2022-11-29T20:47:14.927Z,99106.66
2022-11-29T20:49:43.226Z,99106.19
2022-11-29T20:52:25.409Z,99109.16
2022-11-29T20:54:53.401Z,99112.56
2022-11-29T20:57:21.392Z,99114.63
2022-11-29T20:59:49.317Z,99117.66
2022-11-29T21:02:17.220Z,99119.75
2022-11-29T21:04:45.485Z,99118.63
2022-11-29T21:07:15.090Z,99122.22
2022-11-29T21:09:42.996Z,99123.63
2022-11-29T21:12:12.080Z,99121.19
2022-11-29T21:14:40.527Z,99121.75
2022-11-29T21:17:09.952Z,99124.47
2022-11-29T21:19:39.724Z,99125.22
2022-11-29T21:22:16.457Z,99121.56
2022-11-29T21:24:54.671Z,99119.97
2022-11-29T21:27:28.365Z,99120.06
2022-11-29T21:29:56.952Z,99116.94
2022-11-29T21:32:26.861Z,99121.84
2022-11-29T21:34:54.817Z,99118.53
2022-11-29T21:37:26.472Z,99125.50
2022-11-29T21:39:56.426Z,99119.75
2022-11-29T21:42:24.723Z,99114.22
2022-11-29T21:44:52.694Z,99131.91
2022-11-29T21:47:20.573Z,99117.34
2022-11-29T21:49:48.500Z,99127.06
2022-11-29T21:52:20.829Z,99121.91
2022-11-29T21:54:50.380Z,99121.56
2022-11-29T21:57:19.899Z,99119.91
2022-11-29T21:59:47.822Z,99123.34
2022-11-29T22:02:15.899Z,99124.97
2022-11-29T22:04:43.922Z,99115.84
2022-11-29T22:07:11.914Z,99126.88
2022-11-29T22:09:39.856Z,99121.88
2022-11-29T22:12:31.815Z,99119.56
2022-11-29T22:14:57.351Z,99124.56
2022-11-29T22:17:25.234Z,99119.34
2022-11-29T22:19:53.182Z,99127.16
2022-11-29T22:22:21.081Z,99125.44
2022-11-29T22:24:49.310Z,99123.88
2022-11-29T22:27:18.560Z,99126.09
2022-11-29T22:29:46.521Z,99116.94
2022-11-29T22:32:16.465Z,99121.41
2022-11-29T22:34:44.752Z,99124.94
2022-11-29T22:37:13.392Z,99120.53
2022-11-29T22:39:41.308Z,99119.97
2022-11-29T22:42:09.200Z,99124.66
2022-11-29T22:44:37.256Z,99123.34
2022-11-29T22:47:05.269Z,99124.03
2022-11-29T22:49:34.626Z,99124.47
2022-11-29T22:52:02.526Z,99127.81
2022-11-29T22:54:30.412Z,99125.19
2022-11-29T22:56:58.435Z,99134.66
2022-11-29T22:59:26.317Z,99125.97
2022-11-29T23:01:54.273Z,99119.03
2022-11-29T23:04:22.221Z,99119.50
2022-11-29T23:06:51.528Z,99123.72
2022-11-29T23:09:22.550Z,99115.00
2022-11-29T23:11:54.279Z,99122.69
2022-11-29T23:14:23.278Z,99121.59
2022-11-29T23:16:51.684Z,99127.97
2022-11-29T23:19:20.131Z,99131.09
2022-11-29T23:21:48.502Z,99122.94
2022-11-29T23:24:17.883Z,99126.59
2022-11-29T23:26:47.488Z,99123.38
2022-11-29T23:29:17.576Z,99130.69
2022-11-29T23:31:46.724Z,99133.41
2022-11-29T23:34:14.897Z,99134.28
2022-11-29T23:36:45.730Z,99138.19
2022-11-29T23:39:17.731Z,99136.56
2022-11-29T23:41:45.738Z,99129.66
2022-11-29T23:44:13.702Z,99136.53
2022-11-29T23:46:41.646Z,99129.94
2022-11-29T23:49:09.598Z,99131.00
2022-11-29T23:51:37.604Z,99126.78
2022-11-29T23:54:05.840Z,99133.00
2022-11-29T23:56:35.652Z,99130.59
2022-11-29T23:59:09.560Z,99129.78
